Mc Kees Rocks, Pennsylvania
Current Conditions -  °F | °C
As of 12:51 PM on Saturday 25 Oct 2014 (Local Time) from KPIT Reporting Station
Scattered Clouds Scattered Clouds  
Wind Chill: 62°   Ceiling: Unl
Heat Index: 62°   Visibility: 10mi
Dew Point: 49°   Wind: 17mph
Humidity: 62%   Direction: 230°SW
Pressure: 29.87"   Gusts: 25mph
Location:  40.47°N, 80.06°W
Report Text: KPIT 251651Z 23015G22KT 10SM FEW060 SCT090 SCT250 17/09 A2987 RMK AO2 SLP123 T01670094
Loading
Personal Weather Stations






























Interactive Weather Map
Tropical Storm Tracking
New forecast layout! Learn more

10-Day Weather Forecast

Advertisements
Track Severe Weather on mobile